sensor_id;sensor_type;location;lat;lon;timestamp;P1;durP1;ratioP1;P2;durP2;ratioP2
77287;SDS011;66345;42.694;23.346;2023-02-08T00:01:17;20.15;;;7.60;;
77287;SDS011;66345;42.694;23.346;2023-02-08T00:03:47;20.90;;;7.80;;
77287;SDS011;66345;42.694;23.346;2023-02-08T00:06:13;14.75;;;4.70;;
77287;SDS011;66345;42.694;23.346;2023-02-08T00:08:38;4.20;;;2.20;;
77287;SDS011;66345;42.694;23.346;2023-02-08T00:11:05;8.13;;;2.88;;
77287;SDS011;66345;42.694;23.346;2023-02-08T00:13:32;19.83;;;7.93;;
77287;SDS011;66345;42.694;23.346;2023-02-08T00:15:58;7.88;;;3.58;;
77287;SDS011;66345;42.694;23.346;2023-02-08T00:18:24;21.10;;;7.83;;
77287;SDS011;66345;42.694;23.346;2023-02-08T00:20:50;16.52;;;6.35;;
77287;SDS011;66345;42.694;23.346;2023-02-08T00:23:16;12.73;;;4.17;;
77287;SDS011;66345;42.694;23.346;2023-02-08T00:25:42;20.13;;;7.18;;
77287;SDS011;66345;42.694;23.346;2023-02-08T00:28:10;18.77;;;6.60;;
77287;SDS011;66345;42.694;23.346;2023-02-08T00:30:37;16.23;;;6.18;;
77287;SDS011;66345;42.694;23.346;2023-02-08T00:33:03;12.35;;;5.55;;
77287;SDS011;66345;42.694;23.346;2023-02-08T00:35:29;19.95;;;7.13;;
77287;SDS011;66345;42.694;23.346;2023-02-08T00:37:55;19.50;;;7.20;;
77287;SDS011;66345;42.694;23.346;2023-02-08T00:40:21;8.25;;;3.88;;
77287;SDS011;66345;42.694;23.346;2023-02-08T00:42:47;12.30;;;5.17;;
77287;SDS011;66345;42.694;23.346;2023-02-08T00:45:12;20.17;;;7.63;;
77287;SDS011;66345;42.694;23.346;2023-02-08T00:47:38;9.65;;;4.22;;
77287;SDS011;66345;42.694;23.346;2023-02-08T00:50:03;19.37;;;7.10;;
77287;SDS011;66345;42.694;23.346;2023-02-08T00:52:36;23.60;;;7.75;;
77287;SDS011;66345;42.694;23.346;2023-02-08T00:55:02;19.33;;;7.25;;
77287;SDS011;66345;42.694;23.346;2023-02-08T00:57:28;17.10;;;6.15;;
77287;SDS011;66345;42.694;23.346;2023-02-08T00:59:56;10.82;;;5.70;;
77287;SDS011;66345;42.694;23.346;2023-02-08T01:02:21;21.07;;;7.30;;
77287;SDS011;66345;42.694;23.346;2023-02-08T01:04:47;18.77;;;7.87;;
77287;SDS011;66345;42.694;23.346;2023-02-08T01:07:12;23.25;;;7.95;;
77287;SDS011;66345;42.694;23.346;2023-02-08T01:09:38;14.67;;;6.80;;
77287;SDS011;66345;42.694;23.346;2023-02-08T01:12:03;20.23;;;8.40;;
77287;SDS011;66345;42.694;23.346;2023-02-08T01:14:29;17.75;;;7.63;;
77287;SDS011;66345;42.694;23.346;2023-02-08T01:16:54;18.08;;;7.22;;
77287;SDS011;66345;42.694;23.346;2023-02-08T01:19:20;20.13;;;8.20;;
77287;SDS011;66345;42.694;23.346;2023-02-08T01:21:45;22.37;;;8.53;;
77287;SDS011;66345;42.694;23.346;2023-02-08T01:24:13;19.85;;;8.02;;
77287;SDS011;66345;42.694;23.346;2023-02-08T01:26:39;21.00;;;8.30;;
77287;SDS011;66345;42.694;23.346;2023-02-08T01:29:04;17.50;;;6.93;;
77287;SDS011;66345;42.694;23.346;2023-02-08T01:31:32;19.58;;;8.00;;
77287;SDS011;66345;42.694;23.346;2023-02-08T01:33:59;17.00;;;6.17;;
77287;SDS011;66345;42.694;23.346;2023-02-08T01:36:27;21.92;;;8.13;;
77287;SDS011;66345;42.694;23.346;2023-02-08T01:38:54;22.23;;;8.07;;
77287;SDS011;66345;42.694;23.346;2023-02-08T01:41:29;19.92;;;6.97;;
77287;SDS011;66345;42.694;23.346;2023-02-08T01:46:37;16.48;;;5.93;;
77287;SDS011;66345;42.694;23.346;2023-02-08T01:51:54;10.10;;;4.10;;
77287;SDS011;66345;42.694;23.346;2023-02-08T01:54:27;19.95;;;8.52;;
77287;SDS011;66345;42.694;23.346;2023-02-08T01:57:02;19.47;;;7.83;;
77287;SDS011;66345;42.694;23.346;2023-02-08T01:59:48;21.42;;;7.85;;
77287;SDS011;66345;42.694;23.346;2023-02-08T02:02:36;20.48;;;8.52;;
77287;SDS011;66345;42.694;23.346;2023-02-08T02:05:03;13.43;;;5.55;;
77287;SDS011;66345;42.694;23.346;2023-02-08T02:07:29;16.83;;;6.67;;
77287;SDS011;66345;42.694;23.346;2023-02-08T02:09:59;19.63;;;8.60;;
77287;SDS011;66345;42.694;23.346;2023-02-08T02:12:30;23.08;;;8.60;;
77287;SDS011;66345;42.694;23.346;2023-02-08T02:14:56;18.10;;;7.28;;
77287;SDS011;66345;42.694;23.346;2023-02-08T02:17:23;20.93;;;8.10;;
77287;SDS011;66345;42.694;23.346;2023-02-08T02:36:00;28.17;;;10.73;;
77287;SDS011;66345;42.694;23.346;2023-02-08T02:38:34;29.95;;;10.60;;
77287;SDS011;66345;42.694;23.346;2023-02-08T02:41:27;22.30;;;10.00;;
77287;SDS011;66345;42.694;23.346;2023-02-08T02:44:17;26.75;;;10.50;;
77287;SDS011;66345;42.694;23.346;2023-02-08T02:46:51;26.52;;;10.65;;
77287;SDS011;66345;42.694;23.346;2023-02-08T02:49:26;25.67;;;9.87;;
77287;SDS011;66345;42.694;23.346;2023-02-08T02:52:16;24.67;;;9.00;;
77287;SDS011;66345;42.694;23.346;2023-02-08T02:54:53;26.58;;;8.95;;
77287;SDS011;66345;42.694;23.346;2023-02-08T02:57:30;22.23;;;8.63;;
77287;SDS011;66345;42.694;23.346;2023-02-08T02:59:57;26.17;;;9.55;;
77287;SDS011;66345;42.694;23.346;2023-02-08T03:02:24;21.37;;;9.30;;
77287;SDS011;66345;42.694;23.346;2023-02-08T03:04:52;25.50;;;9.80;;
77287;SDS011;66345;42.694;23.346;2023-02-08T03:10:06;24.33;;;8.60;;
77287;SDS011;66345;42.694;23.346;2023-02-08T03:23:36;25.60;;;10.48;;
77287;SDS011;66345;42.694;23.346;2023-02-08T03:29:15;26.73;;;9.85;;
77287;SDS011;66345;42.694;23.346;2023-02-08T03:34:24;27.67;;;9.40;;
77287;SDS011;66345;42.694;23.346;2023-02-08T03:36:59;22.73;;;8.53;;
77287;SDS011;66345;42.694;23.346;2023-02-08T03:39:29;26.65;;;9.73;;
77287;SDS011;66345;42.694;23.346;2023-02-08T03:41:58;24.90;;;10.25;;
77287;SDS011;66345;42.694;23.346;2023-02-08T03:44:32;20.88;;;8.38;;
77287;SDS011;66345;42.694;23.346;2023-02-08T03:47:11;27.02;;;9.98;;
77287;SDS011;66345;42.694;23.346;2023-02-08T03:49:43;28.17;;;10.13;;
77287;SDS011;66345;42.694;23.346;2023-02-08T03:52:12;29.27;;;9.77;;
77287;SDS011;66345;42.694;23.346;2023-02-08T03:54:39;21.50;;;8.88;;
77287;SDS011;66345;42.694;23.346;2023-02-08T03:59:42;22.80;;;8.47;;
77287;SDS011;66345;42.694;23.346;2023-02-08T04:56:01;19.92;;;7.88;;
77287;SDS011;66345;42.694;23.346;2023-02-08T04:58:27;23.80;;;9.13;;
77287;SDS011;66345;42.694;23.346;2023-02-08T05:00:52;22.57;;;8.53;;
77287;SDS011;66345;42.694;23.346;2023-02-08T05:03:18;25.00;;;10.10;;
77287;SDS011;66345;42.694;23.346;2023-02-08T05:05:43;31.75;;;10.90;;
77287;SDS011;66345;42.694;23.346;2023-02-08T05:08:09;28.20;;;10.03;;
77287;SDS011;66345;42.694;23.346;2023-02-08T05:10:34;28.30;;;9.77;;
77287;SDS011;66345;42.694;23.346;2023-02-08T05:13:00;28.43;;;8.77;;
77287;SDS011;66345;42.694;23.346;2023-02-08T05:15:25;23.48;;;9.05;;
77287;SDS011;66345;42.694;23.346;2023-02-08T05:17:51;25.43;;;8.87;;
77287;SDS011;66345;42.694;23.346;2023-02-08T05:20:16;24.40;;;9.63;;
77287;SDS011;66345;42.694;23.346;2023-02-08T05:22:42;23.20;;;9.87;;
77287;SDS011;66345;42.694;23.346;2023-02-08T05:25:07;23.60;;;9.30;;
77287;SDS011;66345;42.694;23.346;2023-02-08T05:27:34;27.40;;;9.10;;
77287;SDS011;66345;42.694;23.346;2023-02-08T05:29:59;29.95;;;10.80;;
77287;SDS011;66345;42.694;23.346;2023-02-08T05:32:25;27.57;;;10.13;;
77287;SDS011;66345;42.694;23.346;2023-02-08T05:34:51;23.40;;;9.68;;
77287;SDS011;66345;42.694;23.346;2023-02-08T05:37:16;24.67;;;9.63;;
77287;SDS011;66345;42.694;23.346;2023-02-08T05:39:42;26.53;;;10.00;;
77287;SDS011;66345;42.694;23.346;2023-02-08T05:42:07;29.75;;;10.95;;
77287;SDS011;66345;42.694;23.346;2023-02-08T05:44:32;25.75;;;9.68;;
77287;SDS011;66345;42.694;23.346;2023-02-08T05:46:58;30.50;;;13.13;;
77287;SDS011;66345;42.694;23.346;2023-02-08T05:49:23;31.10;;;12.27;;
77287;SDS011;66345;42.694;23.346;2023-02-08T05:51:49;26.33;;;10.47;;
77287;SDS011;66345;42.694;23.346;2023-02-08T05:54:15;25.67;;;10.30;;
77287;SDS011;66345;42.694;23.346;2023-02-08T05:56:41;27.97;;;11.37;;
77287;SDS011;66345;42.694;23.346;2023-02-08T05:59:07;23.95;;;8.80;;
77287;SDS011;66345;42.694;23.346;2023-02-08T06:01:33;26.52;;;9.98;;
77287;SDS011;66345;42.694;23.346;2023-02-08T06:03:59;27.93;;;9.93;;
77287;SDS011;66345;42.694;23.346;2023-02-08T06:06:24;24.00;;;11.00;;
77287;SDS011;66345;42.694;23.346;2023-02-08T06:08:50;25.10;;;9.02;;
77287;SDS011;66345;42.694;23.346;2023-02-08T06:11:15;30.60;;;11.43;;
77287;SDS011;66345;42.694;23.346;2023-02-08T06:13:43;24.52;;;10.68;;
77287;SDS011;66345;42.694;23.346;2023-02-08T06:16:10;24.52;;;10.75;;
77287;SDS011;66345;42.694;23.346;2023-02-08T06:18:36;27.25;;;9.95;;
77287;SDS011;66345;42.694;23.346;2023-02-08T06:21:01;23.90;;;9.97;;
77287;SDS011;66345;42.694;23.346;2023-02-08T06:23:26;25.30;;;9.73;;
77287;SDS011;66345;42.694;23.346;2023-02-08T06:25:52;26.00;;;11.07;;
77287;SDS011;66345;42.694;23.346;2023-02-08T06:28:17;28.93;;;11.43;;
77287;SDS011;66345;42.694;23.346;2023-02-08T06:30:44;27.10;;;11.80;;
77287;SDS011;66345;42.694;23.346;2023-02-08T06:33:09;30.75;;;13.32;;
77287;SDS011;66345;42.694;23.346;2023-02-08T06:35:35;45.47;;;16.42;;
77287;SDS011;66345;42.694;23.346;2023-02-08T06:38:00;36.88;;;15.90;;
77287;SDS011;66345;42.694;23.346;2023-02-08T06:40:25;35.40;;;13.93;;
77287;SDS011;66345;42.694;23.346;2023-02-08T06:42:51;35.27;;;15.47;;
77287;SDS011;66345;42.694;23.346;2023-02-08T06:45:16;43.83;;;16.03;;
77287;SDS011;66345;42.694;23.346;2023-02-08T06:47:42;43.75;;;19.20;;
77287;SDS011;66345;42.694;23.346;2023-02-08T06:50:08;48.60;;;18.63;;
77287;SDS011;66345;42.694;23.346;2023-02-08T06:52:34;41.30;;;18.42;;
77287;SDS011;66345;42.694;23.346;2023-02-08T06:55:00;42.42;;;18.30;;
77287;SDS011;66345;42.694;23.346;2023-02-08T06:57:26;38.33;;;16.57;;
77287;SDS011;66345;42.694;23.346;2023-02-08T06:59:51;39.40;;;16.87;;
77287;SDS011;66345;42.694;23.346;2023-02-08T07:02:18;34.73;;;14.77;;
77287;SDS011;66345;42.694;23.346;2023-02-08T07:04:45;31.38;;;13.98;;
77287;SDS011;66345;42.694;23.346;2023-02-08T07:07:14;33.88;;;14.15;;
77287;SDS011;66345;42.694;23.346;2023-02-08T07:09:41;28.25;;;13.40;;
77287;SDS011;66345;42.694;23.346;2023-02-08T07:12:07;35.00;;;12.83;;
77287;SDS011;66345;42.694;23.346;2023-02-08T07:14:34;27.52;;;12.35;;
77287;SDS011;66345;42.694;23.346;2023-02-08T07:17:01;32.25;;;12.27;;
77287;SDS011;66345;42.694;23.346;2023-02-08T07:19:27;35.35;;;13.65;;
77287;SDS011;66345;42.694;23.346;2023-02-08T07:21:53;34.87;;;13.00;;
77287;SDS011;66345;42.694;23.346;2023-02-08T07:24:20;32.80;;;12.98;;
77287;SDS011;66345;42.694;23.346;2023-02-08T07:26:46;30.23;;;12.15;;
77287;SDS011;66345;42.694;23.346;2023-02-08T07:29:11;34.80;;;11.90;;
77287;SDS011;66345;42.694;23.346;2023-02-08T07:31:37;27.40;;;11.50;;
77287;SDS011;66345;42.694;23.346;2023-02-08T07:34:02;35.33;;;14.10;;
77287;SDS011;66345;42.694;23.346;2023-02-08T07:36:28;35.87;;;14.17;;
77287;SDS011;66345;42.694;23.346;2023-02-08T07:38:53;31.63;;;14.35;;
77287;SDS011;66345;42.694;23.346;2023-02-08T07:41:18;34.90;;;15.23;;
77287;SDS011;66345;42.694;23.346;2023-02-08T07:43:44;34.07;;;14.60;;
77287;SDS011;66345;42.694;23.346;2023-02-08T07:48:37;35.45;;;14.70;;
77287;SDS011;66345;42.694;23.346;2023-02-08T07:51:02;32.53;;;13.20;;
77287;SDS011;66345;42.694;23.346;2023-02-08T07:53:29;33.13;;;13.85;;
77287;SDS011;66345;42.694;23.346;2023-02-08T07:55:55;34.53;;;15.95;;
77287;SDS011;66345;42.694;23.346;2023-02-08T07:58:21;30.02;;;14.23;;
77287;SDS011;66345;42.694;23.346;2023-02-08T08:00:46;32.03;;;15.43;;
77287;SDS011;66345;42.694;23.346;2023-02-08T08:03:12;26.65;;;13.75;;
77287;SDS011;66345;42.694;23.346;2023-02-08T08:05:40;27.00;;;13.00;;
77287;SDS011;66345;42.694;23.346;2023-02-08T08:08:11;30.65;;;13.80;;
77287;SDS011;66345;42.694;23.346;2023-02-08T08:10:37;27.52;;;14.25;;
77287;SDS011;66345;42.694;23.346;2023-02-08T08:13:03;22.77;;;10.45;;
77287;SDS011;66345;42.694;23.346;2023-02-08T08:15:29;26.17;;;13.70;;
77287;SDS011;66345;42.694;23.346;2023-02-08T08:17:55;24.20;;;12.20;;
77287;SDS011;66345;42.694;23.346;2023-02-08T08:20:20;30.52;;;12.90;;
77287;SDS011;66345;42.694;23.346;2023-02-08T08:22:46;24.67;;;12.80;;
77287;SDS011;66345;42.694;23.346;2023-02-08T08:25:11;25.00;;;13.90;;
77287;SDS011;66345;42.694;23.346;2023-02-08T08:27:37;24.00;;;13.43;;
77287;SDS011;66345;42.694;23.346;2023-02-08T08:30:07;25.15;;;13.38;;
77287;SDS011;66345;42.694;23.346;2023-02-08T08:32:35;21.92;;;12.48;;
77287;SDS011;66345;42.694;23.346;2023-02-08T08:35:01;25.45;;;13.13;;
77287;SDS011;66345;42.694;23.346;2023-02-08T08:37:27;25.13;;;13.97;;
77287;SDS011;66345;42.694;23.346;2023-02-08T08:39:52;22.63;;;12.87;;
77287;SDS011;66345;42.694;23.346;2023-02-08T08:42:17;29.63;;;14.63;;
77287;SDS011;66345;42.694;23.346;2023-02-08T08:44:44;26.83;;;14.50;;
77287;SDS011;66345;42.694;23.346;2023-02-08T08:47:09;25.60;;;13.17;;
77287;SDS011;66345;42.694;23.346;2023-02-08T08:49:35;26.83;;;14.55;;
77287;SDS011;66345;42.694;23.346;2023-02-08T08:52:00;22.37;;;12.80;;
77287;SDS011;66345;42.694;23.346;2023-02-08T08:54:26;20.63;;;12.87;;
77287;SDS011;66345;42.694;23.346;2023-02-08T08:56:51;24.67;;;13.07;;
77287;SDS011;66345;42.694;23.346;2023-02-08T08:59:17;23.60;;;11.73;;
77287;SDS011;66345;42.694;23.346;2023-02-08T09:01:42;21.80;;;11.77;;
77287;SDS011;66345;42.694;23.346;2023-02-08T09:04:08;21.60;;;10.73;;
77287;SDS011;66345;42.694;23.346;2023-02-08T09:06:34;20.52;;;10.25;;
77287;SDS011;66345;42.694;23.346;2023-02-08T09:09:00;20.87;;;11.00;;
77287;SDS011;66345;42.694;23.346;2023-02-08T09:11:26;17.80;;;8.73;;
77287;SDS011;66345;42.694;23.346;2023-02-08T09:13:52;18.73;;;10.07;;
77287;SDS011;66345;42.694;23.346;2023-02-08T09:16:20;19.88;;;11.45;;
77287;SDS011;66345;42.694;23.346;2023-02-08T09:18:47;24.00;;;11.50;;
77287;SDS011;66345;42.694;23.346;2023-02-08T09:21:13;23.33;;;11.53;;
77287;SDS011;66345;42.694;23.346;2023-02-08T09:23:40;22.15;;;11.05;;
77287;SDS011;66345;42.694;23.346;2023-02-08T09:26:07;20.73;;;9.65;;
77287;SDS011;66345;42.694;23.346;2023-02-08T09:28:37;24.40;;;10.77;;
77287;SDS011;66345;42.694;23.346;2023-02-08T09:31:09;16.63;;;8.77;;
77287;SDS011;66345;42.694;23.346;2023-02-08T09:33:37;17.10;;;8.50;;
77287;SDS011;66345;42.694;23.346;2023-02-08T09:36:03;16.77;;;7.50;;
77287;SDS011;66345;42.694;23.346;2023-02-08T09:38:29;19.88;;;8.13;;
77287;SDS011;66345;42.694;23.346;2023-02-08T09:46:10;17.25;;;7.35;;
77287;SDS011;66345;42.694;23.346;2023-02-08T09:48:42;16.75;;;6.68;;
77287;SDS011;66345;42.694;23.346;2023-02-08T09:52:11;14.93;;;6.63;;
77287;SDS011;66345;42.694;23.346;2023-02-08T09:54:20;15.52;;;6.57;;
77287;SDS011;66345;42.694;23.346;2023-02-08T09:56:50;17.33;;;6.88;;
77287;SDS011;66345;42.694;23.346;2023-02-08T09:59:20;17.27;;;6.72;;
77287;SDS011;66345;42.694;23.346;2023-02-08T10:01:48;11.60;;;5.22;;
77287;SDS011;66345;42.694;23.346;2023-02-08T10:04:29;16.73;;;6.30;;
77287;SDS011;66345;42.694;23.346;2023-02-08T10:07:05;17.50;;;6.85;;
77287;SDS011;66345;42.694;23.346;2023-02-08T10:09:30;15.20;;;7.07;;
77287;SDS011;66345;42.694;23.346;2023-02-08T10:12:09;14.83;;;6.17;;
77287;SDS011;66345;42.694;23.346;2023-02-08T10:36:32;12.05;;;5.72;;
77287;SDS011;66345;42.694;23.346;2023-02-08T10:39:03;11.73;;;5.43;;
77287;SDS011;66345;42.694;23.346;2023-02-08T10:41:39;12.55;;;5.95;;
77287;SDS011;66345;42.694;23.346;2023-02-08T10:44:10;13.27;;;5.33;;
77287;SDS011;66345;42.694;23.346;2023-02-08T10:49:41;13.20;;;6.40;;
77287;SDS011;66345;42.694;23.346;2023-02-08T10:52:15;18.23;;;6.80;;
77287;SDS011;66345;42.694;23.346;2023-02-08T10:54:40;14.90;;;6.63;;
77287;SDS011;66345;42.694;23.346;2023-02-08T10:57:09;16.47;;;6.63;;
77287;SDS011;66345;42.694;23.346;2023-02-08T10:59:52;15.63;;;7.07;;
77287;SDS011;66345;42.694;23.346;2023-02-08T11:02:24;17.95;;;7.00;;
77287;SDS011;66345;42.694;23.346;2023-02-08T11:05:00;16.63;;;7.17;;
77287;SDS011;66345;42.694;23.346;2023-02-08T11:07:27;14.75;;;6.28;;
77287;SDS011;66345;42.694;23.346;2023-02-08T11:09:52;13.88;;;5.85;;
77287;SDS011;66345;42.694;23.346;2023-02-08T11:12:19;14.35;;;6.03;;
77287;SDS011;66345;42.694;23.346;2023-02-08T11:14:47;17.80;;;6.60;;
77287;SDS011;66345;42.694;23.346;2023-02-08T11:17:21;15.95;;;6.53;;
77287;SDS011;66345;42.694;23.346;2023-02-08T11:19:53;16.60;;;6.22;;
77287;SDS011;66345;42.694;23.346;2023-02-08T11:22:21;15.05;;;6.15;;
77287;SDS011;66345;42.694;23.346;2023-02-08T11:24:56;17.48;;;6.20;;
77287;SDS011;66345;42.694;23.346;2023-02-08T11:32:43;16.65;;;7.35;;
77287;SDS011;66345;42.694;23.346;2023-02-08T11:40:20;13.40;;;5.43;;
77287;SDS011;66345;42.694;23.346;2023-02-08T11:42:48;17.65;;;5.65;;
77287;SDS011;66345;42.694;23.346;2023-02-08T11:45:26;13.43;;;6.10;;
77287;SDS011;66345;42.694;23.346;2023-02-08T11:47:55;14.95;;;5.80;;
77287;SDS011;66345;42.694;23.346;2023-02-08T11:50:31;13.37;;;5.43;;
77287;SDS011;66345;42.694;23.346;2023-02-08T11:53:05;17.83;;;6.00;;
77287;SDS011;66345;42.694;23.346;2023-02-08T11:55:41;15.10;;;5.18;;
77287;SDS011;66345;42.694;23.346;2023-02-08T11:58:23;14.40;;;5.17;;
77287;SDS011;66345;42.694;23.346;2023-02-08T12:00:57;13.05;;;5.90;;
77287;SDS011;66345;42.694;23.346;2023-02-08T12:03:30;13.10;;;5.40;;
77287;SDS011;66345;42.694;23.346;2023-02-08T16:32:54;13.95;;;5.70;;
77287;SDS011;66345;42.694;23.346;2023-02-08T16:35:26;14.82;;;5.50;;
77287;SDS011;66345;42.694;23.346;2023-02-08T16:37:58;10.70;;;4.25;;
77287;SDS011;66345;42.694;23.346;2023-02-08T16:40:40;11.87;;;4.33;;
77287;SDS011;66345;42.694;23.346;2023-02-08T16:48:37;11.73;;;4.20;;
77287;SDS011;66345;42.694;23.346;2023-02-08T16:51:06;11.05;;;4.07;;
77287;SDS011;66345;42.694;23.346;2023-02-08T16:53:36;10.20;;;3.77;;
77287;SDS011;66345;42.694;23.346;2023-02-08T16:56:02;10.55;;;4.32;;
77287;SDS011;66345;42.694;23.346;2023-02-08T16:58:27;8.93;;;3.77;;
77287;SDS011;66345;42.694;23.346;2023-02-08T17:00:53;10.33;;;3.93;;
77287;SDS011;66345;42.694;23.346;2023-02-08T17:03:18;9.77;;;3.83;;
77287;SDS011;66345;42.694;23.346;2023-02-08T17:05:44;9.00;;;3.65;;
77287;SDS011;66345;42.694;23.346;2023-02-08T17:08:11;12.77;;;4.33;;
77287;SDS011;66345;42.694;23.346;2023-02-08T17:10:43;11.93;;;4.68;;
77287;SDS011;66345;42.694;23.346;2023-02-08T17:13:10;12.68;;;4.57;;
77287;SDS011;66345;42.694;23.346;2023-02-08T17:15:35;10.77;;;4.18;;
77287;SDS011;66345;42.694;23.346;2023-02-08T17:18:02;12.27;;;4.53;;
77287;SDS011;66345;42.694;23.346;2023-02-08T17:20:29;13.20;;;4.40;;
77287;SDS011;66345;42.694;23.346;2023-02-08T17:22:57;10.02;;;3.40;;
77287;SDS011;66345;42.694;23.346;2023-02-08T17:25:24;11.95;;;4.75;;
77287;SDS011;66345;42.694;23.346;2023-02-08T17:27:52;10.75;;;4.40;;
77287;SDS011;66345;42.694;23.346;2023-02-08T17:30:24;11.63;;;4.18;;
77287;SDS011;66345;42.694;23.346;2023-02-08T17:32:51;13.33;;;5.33;;
77287;SDS011;66345;42.694;23.346;2023-02-08T17:35:17;11.07;;;4.20;;
77287;SDS011;66345;42.694;23.346;2023-02-08T17:37:44;12.18;;;4.32;;
77287;SDS011;66345;42.694;23.346;2023-02-08T17:40:10;14.00;;;4.95;;
77287;SDS011;66345;42.694;23.346;2023-02-08T17:42:37;13.27;;;5.30;;
77287;SDS011;66345;42.694;23.346;2023-02-08T17:45:04;15.87;;;5.50;;
77287;SDS011;66345;42.694;23.346;2023-02-08T17:47:30;16.88;;;5.63;;
77287;SDS011;66345;42.694;23.346;2023-02-08T17:49:55;10.97;;;4.87;;
77287;SDS011;66345;42.694;23.346;2023-02-08T17:52:21;13.48;;;4.50;;
77287;SDS011;66345;42.694;23.346;2023-02-08T17:54:47;12.23;;;4.37;;
77287;SDS011;66345;42.694;23.346;2023-02-08T17:57:12;12.93;;;4.47;;
77287;SDS011;66345;42.694;23.346;2023-02-08T17:59:38;11.17;;;4.60;;
77287;SDS011;66345;42.694;23.346;2023-02-08T18:02:04;11.88;;;3.95;;
77287;SDS011;66345;42.694;23.346;2023-02-08T18:04:30;10.93;;;4.20;;
77287;SDS011;66345;42.694;23.346;2023-02-08T18:06:55;13.15;;;4.72;;
77287;SDS011;66345;42.694;23.346;2023-02-08T18:09:21;11.43;;;4.57;;
77287;SDS011;66345;42.694;23.346;2023-02-08T18:11:47;10.77;;;4.45;;
77287;SDS011;66345;42.694;23.346;2023-02-08T18:14:12;11.33;;;4.37;;
77287;SDS011;66345;42.694;23.346;2023-02-08T18:16:38;10.90;;;3.93;;
77287;SDS011;66345;42.694;23.346;2023-02-08T18:19:03;11.27;;;4.35;;
77287;SDS011;66345;42.694;23.346;2023-02-08T18:21:29;12.23;;;4.55;;
77287;SDS011;66345;42.694;23.346;2023-02-08T18:24:00;12.88;;;4.35;;
77287;SDS011;66345;42.694;23.346;2023-02-08T18:26:27;11.33;;;4.40;;
77287;SDS011;66345;42.694;23.346;2023-02-08T18:28:55;12.88;;;4.03;;
77287;SDS011;66345;42.694;23.346;2023-02-08T18:31:20;10.95;;;4.30;;
77287;SDS011;66345;42.694;23.346;2023-02-08T18:33:47;12.02;;;4.15;;
77287;SDS011;66345;42.694;23.346;2023-02-08T18:36:14;11.10;;;4.72;;
77287;SDS011;66345;42.694;23.346;2023-02-08T18:38:41;11.17;;;4.47;;
77287;SDS011;66345;42.694;23.346;2023-02-08T18:41:12;13.02;;;4.63;;
77287;SDS011;66345;42.694;23.346;2023-02-08T18:43:40;11.73;;;4.75;;
77287;SDS011;66345;42.694;23.346;2023-02-08T18:46:07;11.60;;;4.20;;
77287;SDS011;66345;42.694;23.346;2023-02-08T18:48:35;13.00;;;5.50;;
77287;SDS011;66345;42.694;23.346;2023-02-08T18:51:01;16.83;;;6.20;;
77287;SDS011;66345;42.694;23.346;2023-02-08T18:53:28;14.43;;;6.00;;
77287;SDS011;66345;42.694;23.346;2023-02-08T18:55:58;17.65;;;6.80;;
77287;SDS011;66345;42.694;23.346;2023-02-08T18:58:25;17.53;;;6.67;;
77287;SDS011;66345;42.694;23.346;2023-02-08T19:00:51;17.38;;;6.88;;
77287;SDS011;66345;42.694;23.346;2023-02-08T19:03:17;18.77;;;7.13;;
77287;SDS011;66345;42.694;23.346;2023-02-08T19:05:43;21.73;;;6.53;;
77287;SDS011;66345;42.694;23.346;2023-02-08T19:08:09;20.73;;;7.32;;
77287;SDS011;66345;42.694;23.346;2023-02-08T19:10:35;17.10;;;6.32;;
77287;SDS011;66345;42.694;23.346;2023-02-08T19:13:02;16.73;;;6.35;;
77287;SDS011;66345;42.694;23.346;2023-02-08T19:15:27;19.97;;;6.63;;
77287;SDS011;66345;42.694;23.346;2023-02-08T19:17:52;18.27;;;6.50;;
77287;SDS011;66345;42.694;23.346;2023-02-08T19:20:20;17.48;;;5.35;;
77287;SDS011;66345;42.694;23.346;2023-02-08T19:22:46;15.60;;;5.15;;
77287;SDS011;66345;42.694;23.346;2023-02-08T19:25:11;14.23;;;6.17;;
77287;SDS011;66345;42.694;23.346;2023-02-08T19:27:37;27.42;;;15.77;;
77287;SDS011;66345;42.694;23.346;2023-02-08T19:30:03;18.57;;;8.47;;
77287;SDS011;66345;42.694;23.346;2023-02-08T19:32:29;18.38;;;7.22;;
77287;SDS011;66345;42.694;23.346;2023-02-08T19:34:54;22.63;;;9.77;;
77287;SDS011;66345;42.694;23.346;2023-02-08T19:37:20;21.63;;;13.80;;
77287;SDS011;66345;42.694;23.346;2023-02-08T19:39:45;55.17;;;20.93;;
77287;SDS011;66345;42.694;23.346;2023-02-08T19:42:11;29.98;;;13.27;;
77287;SDS011;66345;42.694;23.346;2023-02-08T19:44:36;24.20;;;10.20;;
77287;SDS011;66345;42.694;23.346;2023-02-08T19:47:01;21.17;;;8.93;;
77287;SDS011;66345;42.694;23.346;2023-02-08T19:49:27;22.20;;;8.53;;
77287;SDS011;66345;42.694;23.346;2023-02-08T19:51:53;20.50;;;7.32;;
77287;SDS011;66345;42.694;23.346;2023-02-08T19:54:19;18.30;;;7.77;;
77287;SDS011;66345;42.694;23.346;2023-02-08T19:56:45;24.80;;;8.70;;
77287;SDS011;66345;42.694;23.346;2023-02-08T19:59:22;22.35;;;8.63;;
77287;SDS011;66345;42.694;23.346;2023-02-08T20:01:49;19.50;;;7.93;;
77287;SDS011;66345;42.694;23.346;2023-02-08T20:04:14;25.07;;;8.70;;
77287;SDS011;66345;42.694;23.346;2023-02-08T20:06:40;16.60;;;6.97;;
77287;SDS011;66345;42.694;23.346;2023-02-08T20:09:08;17.98;;;8.13;;
77287;SDS011;66345;42.694;23.346;2023-02-08T20:11:36;22.20;;;7.85;;
77287;SDS011;66345;42.694;23.346;2023-02-08T20:14:03;17.65;;;7.38;;
77287;SDS011;66345;42.694;23.346;2023-02-08T20:16:30;23.00;;;8.67;;
77287;SDS011;66345;42.694;23.346;2023-02-08T20:18:56;19.92;;;8.00;;
77287;SDS011;66345;42.694;23.346;2023-02-08T20:21:21;20.47;;;7.53;;
77287;SDS011;66345;42.694;23.346;2023-02-08T20:23:47;24.02;;;7.72;;
77287;SDS011;66345;42.694;23.346;2023-02-08T20:26:14;21.60;;;7.83;;
77287;SDS011;66345;42.694;23.346;2023-02-08T20:28:45;21.30;;;8.68;;
77287;SDS011;66345;42.694;23.346;2023-02-08T20:31:19;26.85;;;10.45;;
77287;SDS011;66345;42.694;23.346;2023-02-08T20:33:46;32.83;;;11.43;;
77287;SDS011;66345;42.694;23.346;2023-02-08T20:36:16;25.25;;;9.60;;
77287;SDS011;66345;42.694;23.346;2023-02-08T20:38:46;29.80;;;11.37;;
77287;SDS011;66345;42.694;23.346;2023-02-08T20:41:18;27.00;;;12.80;;
77287;SDS011;66345;42.694;23.346;2023-02-08T20:43:45;38.70;;;14.18;;
77287;SDS011;66345;42.694;23.346;2023-02-08T20:46:21;39.35;;;15.27;;
77287;SDS011;66345;42.694;23.346;2023-02-08T20:48:55;46.07;;;16.70;;
77287;SDS011;66345;42.694;23.346;2023-02-08T20:51:22;43.75;;;15.63;;
77287;SDS011;66345;42.694;23.346;2023-02-08T20:53:50;37.08;;;15.43;;
77287;SDS011;66345;42.694;23.346;2023-02-08T20:56:20;43.00;;;16.05;;
77287;SDS011;66345;42.694;23.346;2023-02-08T20:58:50;41.75;;;16.55;;
77287;SDS011;66345;42.694;23.346;2023-02-08T21:01:18;42.87;;;17.50;;
77287;SDS011;66345;42.694;23.346;2023-02-08T21:03:45;49.60;;;18.40;;
77287;SDS011;66345;42.694;23.346;2023-02-08T21:06:19;41.92;;;16.55;;
77287;SDS011;66345;42.694;23.346;2023-02-08T21:08:46;39.03;;;16.67;;
77287;SDS011;66345;42.694;23.346;2023-02-08T21:11:16;43.65;;;16.75;;
77287;SDS011;66345;42.694;23.346;2023-02-08T21:13:43;41.53;;;16.60;;
77287;SDS011;66345;42.694;23.346;2023-02-08T21:16:09;43.90;;;16.20;;